Terminal Aerodrome Forecast
Issued by NWS Huntsville, AL

Home | Current Version | Previous Version | Text Only | Print | Product List | Glossary On
Versions: 1 2 3 4 5 6 7 8 9 10 11 12 13
000
FTUS44 KHUN 302320
TAFMSL
TAF
KMSL 302320Z 3100/3124 35006KT P6SM SCT050 SCT100
     FM310100 VRB02KT P6SM FEW250
     FM311500 16005KT P6SM FEW040 BKN160
     FM312000 21006G11KT P6SM SCT040 BKN150=

USA.gov is the U.S. government's official web portal to all federal, state and local government web resources and services.